Terminal Aerodrome Forecast
Issued by NWS Paducah, KY

Home | Current Version | Previous Version | Text Only | Print | Product List | Glossary On
Versions: 1 2 3 4 5 6 7 8 9 10 11 12 13 14 15 16 17 18 19 20 21 22
000
FTUS43 KPAH 180800 AAA
TAFEVV
TAF AMD
KEVV 180843Z 1809/1906 29003KT 6SM BR SCT005 BKN020
      TEMPO 1809/1812 3SM BR BKN005
     FM181600 27005KT P6SM SCT010 BKN020
     FM190000 VRB02KT P6SM SCT025 BKN150=

USA.gov is the U.S. government's official web portal to all federal, state and local government web resources and services.